Time;durP1;ratioP1;P1;durP2;ratioP2;P2;SDS_P1;SDS_P2;PMS_P1;PMS_P2;Temp;Humidity;BMP_temperature;BMP_pressure;BME280_temperature;BME280_humidity;BME280_pressure;Samples;Min_cycle;Max_cycle;Signal;HPM_P1;HPM_P2
2021/07/03 00:01:14;;;;;;;0.40;0.40;;;14.50;99.90;;;;;;5050350;28;20201;-79
2021/07/03 00:03:40;;;;;;;0.63;0.63;;;14.40;99.90;;;;;;5049793;28;20197;-82
2021/07/03 00:06:06;;;;;;;1.00;0.70;;;14.50;99.90;;;;;;5049984;28;20221;-81
2021/07/03 00:08:32;;;;;;;1.20;0.82;;;14.40;99.90;;;;;;5048812;28;20237;-80
2021/07/03 00:10:59;;;;;;;0.90;0.90;;;14.40;99.90;;;;;;5048752;28;20680;-83
2021/07/03 00:13:26;;;;;;;0.60;0.60;;;14.40;99.90;;;;;;5043512;28;20250;-75
2021/07/03 00:15:53;;;;;;;0.60;0.60;;;14.30;99.90;;;;;;5043685;28;20190;-83
2021/07/03 00:18:19;;;;;;;0.75;0.75;;;14.30;99.90;;;;;;5047520;28;20193;-79
2021/07/03 00:20:44;;;;;;;0.45;0.45;;;14.30;99.90;;;;;;5048751;28;20605;-80
2021/07/03 00:23:10;;;;;;;0.60;0.57;;;14.30;99.90;;;;;;5046271;28;20220;-81
2021/07/03 00:25:37;;;;;;;1.02;0.95;;;14.30;99.90;;;;;;5048644;28;20205;-72
2021/07/03 00:28:03;;;;;;;0.47;0.47;;;14.20;99.90;;;;;;5053880;28;20442;-72
2021/07/03 00:30:29;;;;;;;0.65;0.65;;;14.20;99.90;;;;;;5043479;28;20218;-79
2021/07/03 00:32:55;;;;;;;0.85;0.60;;;14.20;99.90;;;;;;5046256;28;20212;-81
2021/07/03 00:35:21;;;;;;;0.55;0.55;;;14.10;99.90;;;;;;5046841;28;20190;-82
2021/07/03 00:37:47;;;;;;;0.75;0.75;;;14.10;99.90;;;;;;5044617;28;20197;-80
2021/07/03 00:40:13;;;;;;;0.43;0.43;;;14.10;99.90;;;;;;5048183;28;20220;-80
2021/07/03 00:42:39;;;;;;;0.40;0.40;;;14.10;99.90;;;;;;5043281;28;20197;-82
2021/07/03 00:45:07;;;;;;;0.50;0.50;;;14.00;99.90;;;;;;5044735;28;20239;-81
2021/07/03 00:47:33;;;;;;;0.60;0.60;;;14.00;99.90;;;;;;5043014;28;20202;-78
2021/07/03 00:49:59;;;;;;;0.40;0.40;;;14.00;99.90;;;;;;5043026;28;20348;-84
2021/07/03 00:52:25;;;;;;;0.40;0.40;;;14.00;99.90;;;;;;5044489;28;20751;-80
2021/07/03 00:54:51;;;;;;;0.50;0.50;;;14.00;99.90;;;;;;5042710;28;20314;-86
2021/07/03 00:57:17;;;;;;;0.93;0.93;;;14.00;99.90;;;;;;5044252;28;20302;-80
2021/07/03 00:59:45;;;;;;;0.60;0.60;;;14.00;99.90;;;;;;5043452;28;20977;-83
2021/07/03 01:02:12;;;;;;;0.40;0.40;;;13.90;99.90;;;;;;5046180;28;20211;-84
2021/07/03 01:04:38;;;;;;;0.60;0.50;;;13.90;99.90;;;;;;5045894;28;20347;-83
2021/07/03 01:07:05;;;;;;;0.68;0.68;;;13.90;99.90;;;;;;5044045;28;20296;-82
2021/07/03 01:09:31;;;;;;;0.50;0.50;;;13.90;99.90;;;;;;5042792;28;20198;-79
2021/07/03 01:11:58;;;;;;;0.73;0.70;;;13.80;99.90;;;;;;5041519;28;20585;-80
2021/07/03 01:14:24;;;;;;;0.68;0.68;;;13.80;99.90;;;;;;5039659;28;20185;-82
2021/07/03 01:16:50;;;;;;;0.80;0.80;;;13.80;99.90;;;;;;5041060;28;20200;-82
2021/07/03 01:19:16;;;;;;;0.40;0.40;;;13.80;99.90;;;;;;5042178;28;20525;-83
2021/07/03 01:21:55;;;;;;;0.50;0.50;;;13.80;99.90;;;;;;5057325;28;20228;-79
2021/07/03 01:24:25;;;;;;;0.50;0.50;;;13.70;99.90;;;;;;5032528;28;20189;-81
2021/07/03 01:26:54;;;;;;;0.75;0.60;;;13.70;99.90;;;;;;5042590;28;20248;-83
2021/07/03 01:29:22;;;;;;;0.43;0.43;;;13.70;99.90;;;;;;5042757;28;20297;-80
2021/07/03 01:31:49;;;;;;;0.50;0.50;;;13.70;99.90;;;;;;5041394;28;20182;-81
2021/07/03 01:34:20;;;;;;;0.50;0.50;;;13.70;99.90;;;;;;5042345;28;20719;-79
2021/07/03 01:36:46;;;;;;;0.52;0.52;;;13.70;99.90;;;;;;5043461;28;20551;-81
2021/07/03 01:39:12;;;;;;;0.50;0.50;;;13.70;99.90;;;;;;5041388;28;20197;-78
2021/07/03 01:41:38;;;;;;;0.50;0.50;;;13.60;99.90;;;;;;5042055;28;20747;-82
2021/07/03 01:44:05;;;;;;;0.80;0.70;;;13.60;99.90;;;;;;5043537;28;20190;-82
2021/07/03 01:46:31;;;;;;;1.38;0.63;;;13.60;99.90;;;;;;5042193;28;20315;-81
2021/07/03 01:49:09;;;;;;;0.82;0.82;;;13.50;99.90;;;;;;5043983;28;20763;-82
2021/07/03 01:51:35;;;;;;;1.38;1.23;;;13.50;99.90;;;;;;5041696;28;20251;-80
2021/07/03 01:54:01;;;;;;;0.40;0.40;;;13.50;99.90;;;;;;5042146;28;20202;-82
2021/07/03 01:56:27;;;;;;;0.50;0.50;;;13.40;99.90;;;;;;5042067;28;20193;-75
2021/07/03 01:58:53;;;;;;;0.65;0.65;;;13.40;99.90;;;;;;5042871;28;20216;-78
2021/07/03 02:01:18;;;;;;;0.47;0.47;;;13.40;99.90;;;;;;5040911;28;20676;-82
2021/07/03 02:03:45;;;;;;;0.40;0.40;;;13.40;99.90;;;;;;5043720;28;20669;-78
2021/07/03 02:06:11;;;;;;;0.50;0.50;;;13.40;99.90;;;;;;5043149;28;20302;-81
2021/07/03 02:08:37;;;;;;;0.65;0.65;;;13.40;99.90;;;;;;5042287;28;20242;-79
2021/07/03 02:11:03;;;;;;;0.47;0.47;;;13.40;99.90;;;;;;5042024;28;20499;-73
2021/07/03 02:13:30;;;;;;;0.65;0.65;;;13.40;99.90;;;;;;5043041;28;20212;-80
2021/07/03 02:15:56;;;;;;;0.60;0.60;;;13.40;99.90;;;;;;5042105;28;20189;-81
2021/07/03 02:18:22;;;;;;;0.50;0.50;;;13.30;99.90;;;;;;5040936;28;20688;-82
2021/07/03 02:20:49;;;;;;;0.90;0.90;;;13.30;99.90;;;;;;5043873;28;20201;-75
2021/07/03 02:23:16;;;;;;;1.70;1.25;;;13.30;99.90;;;;;;5044888;28;20193;-79
2021/07/03 02:25:42;;;;;;;0.57;0.57;;;13.30;99.90;;;;;;5044329;28;20201;-79
2021/07/03 02:28:08;;;;;;;1.75;1.25;;;13.30;99.90;;;;;;5044834;28;20225;-76
2021/07/03 02:30:33;;;;;;;0.50;0.50;;;13.30;99.90;;;;;;5041428;28;20545;-79
2021/07/03 02:33:00;;;;;;;0.50;0.50;;;13.40;99.90;;;;;;5042894;28;20628;-80
2021/07/03 02:35:26;;;;;;;0.60;0.60;;;13.40;99.90;;;;;;5043219;28;20279;-78
2021/07/03 02:37:52;;;;;;;0.50;0.50;;;13.40;99.90;;;;;;5040734;28;20565;-80
2021/07/03 02:40:19;;;;;;;0.40;0.40;;;13.50;99.90;;;;;;5041634;28;20214;-76
2021/07/03 02:42:45;;;;;;;0.50;0.50;;;13.50;99.90;;;;;;5041534;28;20292;-81
2021/07/03 02:45:13;;;;;;;0.50;0.50;;;13.70;99.90;;;;;;5043135;28;20289;-79
2021/07/03 02:47:39;;;;;;;0.50;0.50;;;13.80;99.90;;;;;;5042412;28;20288;-83
2021/07/03 02:50:07;;;;;;;0.60;0.60;;;13.90;99.90;;;;;;5043280;28;20714;-81
2021/07/03 02:52:33;;;;;;;1.92;1.25;;;14.00;99.90;;;;;;5039233;28;20244;-78
2021/07/03 02:54:59;;;;;;;0.50;0.50;;;14.10;99.90;;;;;;5042135;28;20201;-82
2021/07/03 02:57:25;;;;;;;0.95;0.90;;;14.30;99.90;;;;;;5040928;28;20209;-83
2021/07/03 02:59:50;;;;;;;0.57;0.57;;;14.40;99.90;;;;;;5040150;28;20202;-83
2021/07/03 03:02:16;;;;;;;0.50;0.50;;;14.50;99.90;;;;;;5050546;28;20270;-82
2021/07/03 03:04:42;;;;;;;0.80;0.80;;;14.60;99.90;;;;;;5040564;28;20222;-77
2021/07/03 03:07:07;;;;;;;1.10;0.80;;;14.70;99.90;;;;;;5041024;28;20253;-84
2021/07/03 03:09:33;;;;;;;0.95;0.80;;;14.80;99.90;;;;;;5043291;28;20270;-82
2021/07/03 03:11:59;;;;;;;0.57;0.57;;;14.80;99.90;;;;;;5040556;28;20205;-82
2021/07/03 03:14:25;;;;;;;0.40;0.40;;;14.90;99.90;;;;;;5042489;28;20841;-83
2021/07/03 03:16:51;;;;;;;0.77;0.77;;;14.90;99.90;;;;;;5040430;28;20644;-83
2021/07/03 03:19:17;;;;;;;0.50;0.50;;;15.00;99.90;;;;;;5040744;28;20534;-82
2021/07/03 03:21:43;;;;;;;0.40;0.40;;;15.10;99.90;;;;;;5035779;28;20197;-79
2021/07/03 03:24:08;;;;;;;0.60;0.60;;;15.20;99.90;;;;;;5039145;28;20196;-78
2021/07/03 03:26:35;;;;;;;0.82;0.63;;;15.20;99.90;;;;;;5037662;28;20365;-82
2021/07/03 03:29:01;;;;;;;1.63;0.68;;;15.30;99.90;;;;;;5040791;28;20230;-83
2021/07/03 03:31:27;;;;;;;0.45;0.45;;;15.40;99.90;;;;;;5039626;28;20332;-81
2021/07/03 03:33:53;;;;;;;0.68;0.68;;;15.40;99.90;;;;;;5038671;28;20201;-81
2021/07/03 03:36:19;;;;;;;0.50;0.50;;;15.50;99.90;;;;;;5042141;28;20294;-73
2021/07/03 03:38:45;;;;;;;0.35;0.35;;;15.60;99.90;;;;;;5041818;28;20194;-76
2021/07/03 03:41:11;;;;;;;1.00;1.00;;;15.70;99.90;;;;;;5039763;28;20205;-78
2021/07/03 03:43:38;;;;;;;0.50;0.50;;;15.80;99.90;;;;;;5040023;28;20197;-77
2021/07/03 03:46:03;;;;;;;0.47;0.47;;;15.80;99.90;;;;;;5038731;28;20212;-76
2021/07/03 03:48:30;;;;;;;0.52;0.50;;;15.90;99.90;;;;;;5042681;28;20221;-76
2021/07/03 03:50:55;;;;;;;0.43;0.43;;;15.90;99.90;;;;;;5041698;28;20269;-83
2021/07/03 03:53:21;;;;;;;0.75;0.65;;;16.00;99.90;;;;;;5041671;28;20624;-77
2021/07/03 03:55:47;;;;;;;0.68;0.68;;;16.10;99.90;;;;;;5040203;28;20186;-83
2021/07/03 03:58:12;;;;;;;0.40;0.40;;;16.20;99.90;;;;;;5038502;28;20212;-79
2021/07/03 04:00:38;;;;;;;0.50;0.50;;;16.20;99.90;;;;;;5039666;28;20212;-81
2021/07/03 04:03:04;;;;;;;0.70;0.70;;;16.30;99.90;;;;;;5039796;28;20204;-75
2021/07/03 04:05:29;;;;;;;0.55;0.55;;;16.30;99.90;;;;;;5038689;28;20332;-80
2021/07/03 04:07:55;;;;;;;0.63;0.63;;;16.40;99.90;;;;;;5039833;28;20217;-81
2021/07/03 04:10:21;;;;;;;0.40;0.40;;;16.50;99.90;;;;;;5038445;28;20209;-82
2021/07/03 04:12:46;;;;;;;0.75;0.70;;;16.50;99.90;;;;;;5042076;28;20213;-83
2021/07/03 04:15:13;;;;;;;0.50;0.50;;;16.60;99.90;;;;;;5042216;28;20208;-76
2021/07/03 04:17:39;;;;;;;0.45;0.45;;;16.60;99.90;;;;;;5044890;28;20205;-82
2021/07/03 04:20:08;;;;;;;0.68;0.68;;;16.70;99.90;;;;;;5039773;28;20196;-83
2021/07/03 04:22:34;;;;;;;0.40;0.40;;;16.80;99.90;;;;;;5041686;28;20208;-83
2021/07/03 04:25:01;;;;;;;0.40;0.40;;;16.90;99.90;;;;;;5043785;28;20205;-81
2021/07/03 04:27:27;;;;;;;0.38;0.38;;;17.00;99.90;;;;;;5042788;28;20288;-81
2021/07/03 04:29:52;;;;;;;0.70;0.70;;;17.10;99.90;;;;;;5044290;28;20446;-78
2021/07/03 04:32:18;;;;;;;0.50;0.50;;;17.20;99.90;;;;;;5043958;28;20364;-81
2021/07/03 04:34:44;;;;;;;1.83;0.68;;;17.30;99.90;;;;;;5040827;28;20198;-83
2021/07/03 04:37:10;;;;;;;0.50;0.50;;;17.40;99.90;;;;;;5043143;28;20205;-78
2021/07/03 04:39:37;;;;;;;0.40;0.40;;;17.40;99.90;;;;;;5043317;28;20300;-83
2021/07/03 04:42:03;;;;;;;0.68;0.68;;;17.50;99.90;;;;;;5043991;28;20197;-75
2021/07/03 04:44:29;;;;;;;0.60;0.55;;;17.50;99.90;;;;;;5042589;28;20202;-81
2021/07/03 04:46:55;;;;;;;0.50;0.50;;;17.60;99.90;;;;;;5044716;28;20193;-82
2021/07/03 04:49:21;;;;;;;0.50;0.50;;;17.70;99.90;;;;;;5042032;28;20204;-80
2021/07/03 04:51:46;;;;;;;0.40;0.40;;;17.80;99.90;;;;;;5043877;28;20645;-82
2021/07/03 04:54:12;;;;;;;0.47;0.47;;;17.80;99.90;;;;;;5043760;28;20198;-78
2021/07/03 04:56:38;;;;;;;0.40;0.40;;;17.90;99.90;;;;;;5042668;28;20193;-81
2021/07/03 04:59:04;;;;;;;0.40;0.40;;;18.00;99.90;;;;;;5043073;28;20197;-81
2021/07/03 05:01:29;;;;;;;0.65;0.65;;;18.10;99.90;;;;;;5043369;28;20292;-81
2021/07/03 05:03:55;;;;;;;0.45;0.45;;;18.20;99.90;;;;;;5043838;28;20238;-79
2021/07/03 05:06:21;;;;;;;0.73;0.65;;;18.30;99.90;;;;;;5042680;28;20252;-82
2021/07/03 05:08:47;;;;;;;2.47;1.05;;;18.40;99.90;;;;;;5044021;28;20210;-83
2021/07/03 05:11:12;;;;;;;0.50;0.45;;;18.40;99.90;;;;;;5042782;28;20327;-83
2021/07/03 05:13:38;;;;;;;0.88;0.82;;;18.50;99.90;;;;;;5044077;28;20205;-76
2021/07/03 05:16:04;;;;;;;0.52;0.52;;;18.60;99.90;;;;;;5045183;28;20193;-79
2021/07/03 05:18:30;;;;;;;0.50;0.50;;;18.70;99.90;;;;;;5043951;28;20661;-83
2021/07/03 05:20:56;;;;;;;0.40;0.40;;;18.70;99.90;;;;;;5044091;28;20251;-84
2021/07/03 05:23:22;;;;;;;0.68;0.40;;;18.90;99.90;;;;;;5042900;28;20268;-82
2021/07/03 05:25:48;;;;;;;0.68;0.68;;;19.00;99.90;;;;;;5040878;28;20732;-79
2021/07/03 05:28:14;;;;;;;0.50;0.50;;;19.20;99.90;;;;;;5042733;28;20251;-83
2021/07/03 05:30:42;;;;;;;0.65;0.32;;;19.20;99.90;;;;;;5039218;28;20224;-80
2021/07/03 05:33:08;;;;;;;0.43;0.43;;;19.40;99.90;;;;;;5042381;28;20197;-80
2021/07/03 05:35:34;;;;;;;0.60;0.60;;;19.50;99.90;;;;;;5038975;28;20186;-80
2021/07/03 05:38:00;;;;;;;0.82;0.73;;;19.60;99.90;;;;;;5040130;28;20654;-84
2021/07/03 05:40:26;;;;;;;0.50;0.50;;;19.70;99.90;;;;;;5041262;28;20276;-83
2021/07/03 05:42:52;;;;;;;0.47;0.47;;;19.70;99.90;;;;;;5038975;28;20198;-81
2021/07/03 05:45:18;;;;;;;1.65;0.75;;;19.80;99.90;;;;;;5041485;28;21066;-82
2021/07/03 05:47:51;;;;;;;12.60;1.35;;;20.00;99.90;;;;;;5042212;28;20206;-81
2021/07/03 05:50:22;;;;;;;0.65;0.65;;;20.00;99.90;;;;;;5039356;28;20202;-82
2021/07/03 05:52:48;;;;;;;3.03;0.73;;;20.10;99.90;;;;;;5043226;28;20553;-80
2021/07/03 05:55:14;;;;;;;1.38;0.52;;;20.20;99.90;;;;;;5039965;28;20200;-78
2021/07/03 05:57:40;;;;;;;0.50;0.50;;;20.30;99.90;;;;;;5039702;28;20201;-70
2021/07/03 06:00:08;;;;;;;3.40;1.45;;;20.30;99.90;;;;;;5041996;28;20707;-69
2021/07/03 06:02:34;;;;;;;1.08;0.73;;;20.40;99.90;;;;;;5039100;28;20217;-70
2021/07/03 06:04:59;;;;;;;0.30;0.30;;;20.60;99.90;;;;;;5045114;28;20233;-71
2021/07/03 06:07:26;;;;;;;0.30;0.30;;;20.90;99.90;;;;;;5057654;28;20197;-70
2021/07/03 06:09:52;;;;;;;0.93;0.77;;;21.10;99.90;;;;;;5039343;28;20325;-70
2021/07/03 06:12:18;;;;;;;1.42;0.75;;;21.30;99.90;;;;;;5042044;28;20258;-71
2021/07/03 06:14:44;;;;;;;4.20;1.15;;;21.40;99.90;;;;;;5042858;28;20268;-70
2021/07/03 06:17:13;;;;;;;6.18;0.45;;;21.60;99.90;;;;;;5041062;28;20222;-70
2021/07/03 06:19:39;;;;;;;1.60;0.73;;;22.00;99.90;;;;;;5040541;28;20189;-71
2021/07/03 06:22:05;;;;;;;0.65;0.50;;;22.40;99.90;;;;;;5042690;28;20287;-71
2021/07/03 06:24:31;;;;;;;2.60;0.63;;;22.50;99.90;;;;;;5042133;28;20665;-72
2021/07/03 06:26:56;;;;;;;0.63;0.60;;;22.70;99.90;;;;;;5043894;28;20186;-71
2021/07/03 06:29:22;;;;;;;0.50;0.50;;;23.10;99.90;;;;;;5042547;28;20197;-71
2021/07/03 06:31:48;;;;;;;0.50;0.50;;;23.40;99.90;;;;;;5039236;28;20199;-72
2021/07/03 06:34:14;;;;;;;0.40;0.40;;;23.70;99.90;;;;;;5043023;28;20193;-70
2021/07/03 06:36:40;;;;;;;1.48;0.55;;;23.70;99.90;;;;;;5040481;28;20189;-72
2021/07/03 06:39:05;;;;;;;0.70;0.70;;;23.90;99.90;;;;;;5040750;28;20292;-70
2021/07/03 06:41:31;;;;;;;0.40;0.40;;;24.00;99.90;;;;;;5040765;28;20289;-71
2021/07/03 06:43:57;;;;;;;0.65;0.30;;;23.90;99.90;;;;;;5038898;28;20213;-71
2021/07/03 06:46:23;;;;;;;0.40;0.40;;;24.00;99.90;;;;;;5039695;28;20205;-71
2021/07/03 06:48:48;;;;;;;2.00;1.00;;;24.20;99.90;;;;;;5039553;28;20666;-69
2021/07/03 06:51:14;;;;;;;0.20;0.20;;;24.50;99.90;;;;;;5055029;28;20574;-71
2021/07/03 06:53:40;;;;;;;0.40;0.40;;;24.30;99.90;;;;;;5040204;28;20575;-71
2021/07/03 06:56:06;;;;;;;7.25;0.80;;;24.30;99.90;;;;;;5041794;28;20216;-71
2021/07/03 06:58:31;;;;;;;1.30;0.50;;;24.50;99.90;;;;;;5041303;28;20266;-71
2021/07/03 07:00:57;;;;;;;0.77;0.77;;;24.70;99.90;;;;;;5029777;28;20204;-71
2021/07/03 07:03:23;;;;;;;0.20;0.20;;;24.70;99.90;;;;;;5039510;28;20201;-70
2021/07/03 07:05:48;;;;;;;1.52;1.08;;;24.20;99.90;;;;;;5040942;28;20232;-71
2021/07/03 07:08:14;;;;;;;0.57;0.57;;;24.30;99.90;;;;;;5041191;28;20710;-70
2021/07/03 07:10:40;;;;;;;0.50;0.50;;;24.60;99.90;;;;;;5042483;28;20201;-70
2021/07/03 07:13:07;;;;;;;0.43;0.40;;;24.80;99.90;;;;;;5042557;28;20582;-71
2021/07/03 07:15:33;;;;;;;0.40;0.40;;;24.90;99.90;;;;;;5026906;28;20198;-70
2021/07/03 07:17:59;;;;;;;0.30;0.30;;;24.80;99.90;;;;;;5042421;28;20983;-71
2021/07/03 07:20:25;;;;;;;0.40;0.40;;;24.90;99.90;;;;;;5037934;28;20205;-70
2021/07/03 07:22:51;;;;;;;1.27;0.55;;;25.10;99.90;;;;;;5039748;28;20786;-70
2021/07/03 07:25:16;;;;;;;0.80;0.57;;;24.90;99.90;;;;;;5033865;28;20186;-72
2021/07/03 07:27:42;;;;;;;0.40;0.40;;;24.80;99.90;;;;;;5045135;28;20270;-69
2021/07/03 07:30:08;;;;;;;0.43;0.43;;;24.90;99.90;;;;;;5038141;28;20236;-72
2021/07/03 07:32:34;;;;;;;0.25;0.25;;;25.00;99.90;;;;;;5038310;28;20284;-72
2021/07/03 07:35:00;;;;;;;1.05;0.95;;;25.30;99.90;;;;;;5042436;28;20313;-71
2021/07/03 07:37:26;;;;;;;1.15;0.50;;;25.50;99.90;;;;;;5041167;28;20251;-72
2021/07/03 07:39:52;;;;;;;1.90;1.05;;;25.60;99.90;;;;;;5043333;28;20205;-71
2021/07/03 07:42:18;;;;;;;0.43;0.43;;;25.80;99.90;;;;;;5039716;28;20201;-71
2021/07/03 07:44:44;;;;;;;0.40;0.20;;;26.20;99.90;;;;;;5041934;28;20239;-71
2021/07/03 07:47:10;;;;;;;0.20;0.20;;;26.70;99.90;;;;;;5041147;28;20312;-71
2021/07/03 07:49:35;;;;;;;1.65;0.75;;;26.80;99.90;;;;;;5043864;28;20735;-71
2021/07/03 07:52:01;;;;;;;0.68;0.68;;;26.90;99.90;;;;;;5046518;28;20203;-71
2021/07/03 07:54:27;;;;;;;0.20;0.20;;;26.70;99.90;;;;;;5045769;28;20225;-70
2021/07/03 07:56:53;;;;;;;0.40;0.40;;;26.40;99.90;;;;;;5042958;28;20599;-71
2021/07/03 07:59:19;;;;;;;0.40;0.40;;;26.20;99.90;;;;;;5044654;28;20205;-71
2021/07/03 08:01:45;;;;;;;1.00;0.60;;;26.40;99.90;;;;;;5044228;28;20212;-73
2021/07/03 08:04:10;;;;;;;0.32;0.32;;;26.50;99.50;;;;;;5044435;28;20223;-71
2021/07/03 08:06:36;;;;;;;0.47;0.47;;;26.30;99.90;;;;;;5047712;28;20296;-71
2021/07/03 08:09:02;;;;;;;0.70;0.38;;;26.50;99.90;;;;;;5046841;28;20208;-71
2021/07/03 08:11:28;;;;;;;0.40;0.32;;;26.50;99.90;;;;;;5038628;28;20284;-71
2021/07/03 08:13:54;;;;;;;0.30;0.30;;;26.40;99.60;;;;;;5044075;28;20776;-71
2021/07/03 08:16:19;;;;;;;0.40;0.40;;;26.50;99.90;;;;;;5040180;28;20274;-70
2021/07/03 08:18:45;;;;;;;0.55;0.40;;;26.80;99.90;;;;;;5037422;28;20201;-71
2021/07/03 08:21:11;;;;;;;1.55;0.77;;;27.10;97.50;;;;;;5040647;28;20194;-67
2021/07/03 08:23:36;;;;;;;0.40;0.40;;;27.30;97.80;;;;;;5044245;28;21003;-71
2021/07/03 08:26:02;;;;;;;0.30;0.30;;;27.60;97.30;;;;;;5043999;28;20201;-74
2021/07/03 08:28:28;;;;;;;0.60;0.60;;;27.50;97.40;;;;;;5042528;28;20200;-73
2021/07/03 08:30:53;;;;;;;0.22;0.22;;;27.60;97.70;;;;;;5036963;28;20197;-72
2021/07/03 08:33:19;;;;;;;0.20;0.20;;;27.40;99.20;;;;;;5043818;28;20337;-70
2021/07/03 08:35:45;;;;;;;0.30;0.30;;;27.30;96.80;;;;;;5037272;28;20221;-71
2021/07/03 08:38:10;;;;;;;0.20;0.20;;;27.40;96.20;;;;;;5040143;28;20212;-72
2021/07/03 08:40:36;;;;;;;0.60;0.60;;;26.90;95.90;;;;;;5042482;28;20200;-72
2021/07/03 08:43:02;;;;;;;0.22;0.22;;;27.00;98.60;;;;;;5035149;28;20198;-71
2021/07/03 08:45:28;;;;;;;0.80;0.35;;;27.30;95.80;;;;;;5040184;28;20201;-71
2021/07/03 08:47:54;;;;;;;0.40;0.40;;;27.40;95.90;;;;;;5042665;28;20282;-72
2021/07/03 08:50:20;;;;;;;1.13;0.57;;;27.60;95.20;;;;;;5042235;28;20200;-72
2021/07/03 08:52:46;;;;;;;0.52;0.52;;;27.80;97.00;;;;;;5032524;28;20197;-73
2021/07/03 08:55:22;;;;;;;0.95;0.82;;;28.10;92.30;;;;;;5042153;28;20234;-73
2021/07/03 08:57:52;;;;;;;0.28;0.28;;;27.90;93.20;;;;;;5035381;28;20197;-75
2021/07/03 09:00:36;;;;;;;0.52;0.45;;;28.00;93.60;;;;;;5033884;28;20801;-75
2021/07/03 09:22:18;;;;;;;0.30;0.30;;;29.00;88.80;;;;;;5016458;28;20591;-73
2021/07/03 09:24:43;;;;;;;0.65;0.52;;;28.60;88.50;;;;;;5021492;28;20684;-74
2021/07/03 09:27:12;;;;;;;0.90;0.50;;;28.70;80.70;;;;;;5018566;28;20216;-77
2021/07/03 09:29:49;;;;;;;0.57;0.47;;;28.80;85.50;;;;;;4996755;28;20201;-73
2021/07/03 09:32:15;;;;;;;0.17;0.17;;;28.90;89.00;;;;;;5008482;28;20180;-73
2021/07/03 09:34:41;;;;;;;0.17;0.17;;;29.00;85.50;;;;;;5001576;28;21050;-72
2021/07/03 09:37:57;;;;;;;0.35;0.35;;;29.00;85.80;;;;;;5018533;28;20194;-72
2021/07/03 09:40:28;;;;;;;0.20;0.20;;;29.40;78.00;;;;;;5020593;28;20221;-73
2021/07/03 09:42:54;;;;;;;0.32;0.30;;;29.40;81.20;;;;;;5022516;28;20202;-74
2021/07/03 09:45:19;;;;;;;0.25;0.25;;;29.80;79.10;;;;;;5018510;28;20900;-74
2021/07/03 09:47:45;;;;;;;1.33;0.45;;;29.50;78.60;;;;;;5000676;28;20268;-75
2021/07/03 09:50:13;;;;;;;0.20;0.20;;;29.60;78.40;;;;;;5003792;28;20646;-73
2021/07/03 09:52:39;;;;;;;0.20;0.20;;;29.70;80.50;;;;;;5022067;28;20240;-73
2021/07/03 09:55:08;;;;;;;0.30;0.30;;;30.00;76.80;;;;;;5020528;28;20209;-74
2021/07/03 09:57:38;;;;;;;0.20;0.20;;;29.90;75.30;;;;;;5021580;28;20206;-75
2021/07/03 10:00:08;;;;;;;0.22;0.22;;;30.10;74.30;;;;;;5003055;28;20329;-74
2021/07/03 10:02:34;;;;;;;0.40;0.20;;;29.80;77.40;;;;;;5018367;28;20222;-71
2021/07/03 10:05:00;;;;;;;0.28;0.28;;;29.30;77.20;;;;;;5018771;28;20195;-71
2021/07/03 10:07:35;;;;;;;1.23;0.40;;;29.40;78.90;;;;;;5000464;28;20742;-71
2021/07/03 10:10:11;;;;;;;0.20;0.20;;;29.60;77.90;;;;;;5021030;28;20205;-71
2021/07/03 10:12:41;;;;;;;0.30;0.30;;;29.90;78.00;;;;;;5021962;28;20193;-71
2021/07/03 10:15:07;;;;;;;0.20;0.20;;;30.40;75.70;;;;;;5019104;28;20778;-71
2021/07/03 10:17:35;;;;;;;0.30;0.30;;;30.50;72.30;;;;;;5000302;28;20202;-71
2021/07/03 10:20:07;;;;;;;0.38;0.38;;;30.40;77.60;;;;;;4998516;28;20305;-71
2021/07/03 10:22:36;;;;;;;0.40;0.40;;;30.40;74.60;;;;;;5005536;28;20225;-72
2021/07/03 10:25:15;;;;;;;0.50;0.47;;;30.20;76.60;;;;;;5004603;28;20223;-71
2021/07/03 10:27:56;;;;;;;0.17;0.17;;;30.20;77.80;;;;;;5016975;28;20243;-71
2021/07/03 10:30:26;;;;;;;0.25;0.25;;;30.70;73.60;;;;;;5016184;28;20197;-73
2021/07/03 10:33:16;;;;;;;0.25;0.25;;;30.60;76.30;;;;;;5021019;28;20247;-70
2021/07/03 10:35:56;;;;;;;0.52;0.45;;;30.60;75.60;;;;;;5020950;28;20229;-70
2021/07/03 10:38:26;;;;;;;0.80;0.60;;;30.70;75.30;;;;;;5010062;28;20287;-72
2021/07/03 10:41:19;;;;;;;0.35;0.30;;;31.20;69.20;;;;;;5023219;28;20201;-71
2021/07/03 10:43:50;;;;;;;4.55;0.88;;;31.10;73.00;;;;;;5024188;28;20327;-71
2021/07/03 10:46:35;;;;;;;2.55;0.40;;;31.30;73.50;;;;;;5010378;28;20902;-71
2021/07/03 10:49:08;;;;;;;0.30;0.30;;;31.30;70.00;;;;;;5002088;28;20220;-71
2021/07/03 10:51:45;;;;;;;0.50;0.45;;;31.10;73.30;;;;;;5007444;28;20741;-71
2021/07/03 10:54:31;;;;;;;0.30;0.30;;;31.50;70.70;;;;;;5002392;28;20750;-71
2021/07/03 10:57:04;;;;;;;0.40;0.35;;;31.30;66.80;;;;;;5014018;28;20244;-72
2021/07/03 10:59:34;;;;;;;1.08;0.55;;;31.20;66.60;;;;;;5020313;28;20206;-71
2021/07/03 11:02:14;;;;;;;0.40;0.40;;;31.00;73.30;;;;;;4996981;28;20198;-71
2021/07/03 11:04:49;;;;;;;0.20;0.20;;;30.90;72.30;;;;;;5021435;28;20189;-70
2021/07/03 11:07:20;;;;;;;0.57;0.38;;;31.30;70.40;;;;;;5018184;28;20280;-71
2021/07/03 11:09:46;;;;;;;1.10;0.30;;;32.00;70.80;;;;;;5023464;28;20597;-71
2021/07/03 11:12:23;;;;;;;0.15;0.05;;;32.10;69.90;;;;;;5023177;28;20194;-71
2021/07/03 11:14:54;;;;;;;0.52;0.32;;;32.30;66.50;;;;;;5022450;28;20197;-71
2021/07/03 11:17:22;;;;;;;0.32;0.28;;;32.20;68.80;;;;;;5005337;28;20730;-71
2021/07/03 11:19:50;;;;;;;0.38;0.38;;;32.20;65.80;;;;;;5021460;28;20201;-72
2021/07/03 11:22:22;;;;;;;0.25;0.25;;;31.30;69.30;;;;;;5014654;28;20272;-73
2021/07/03 11:25:23;;;;;;;0.22;0.22;;;30.80;69.10;;;;;;5043551;28;20271;-72
2021/07/03 11:27:49;;;;;;;0.40;0.32;;;30.70;67.80;;;;;;5044618;28;20247;-72
2021/07/03 11:30:22;;;;;;;0.32;0.32;;;30.80;71.50;;;;;;5030410;28;20679;-72
2021/07/03 11:32:56;;;;;;;1.52;0.80;;;31.10;68.20;;;;;;5038849;28;20201;-74
2021/07/03 11:35:23;;;;;;;0.52;0.20;;;31.60;70.70;;;;;;5022412;28;20215;-72
2021/07/03 11:37:49;;;;;;;0.28;0.22;;;31.50;67.30;;;;;;5028881;28;20196;-72
2021/07/03 11:40:20;;;;;;;0.13;0.13;;;31.40;72.10;;;;;;5026445;28;20255;-72
2021/07/03 11:42:51;;;;;;;0.35;0.35;;;31.40;69.20;;;;;;5039575;28;20306;-73
2021/07/03 11:45:20;;;;;;;0.82;0.60;;;31.80;66.80;;;;;;5038955;28;20201;-73
2021/07/03 11:47:50;;;;;;;0.35;0.35;;;32.30;71.70;;;;;;5042695;28;20569;-73
2021/07/03 11:50:56;;;;;;;0.10;0.10;;;32.20;68.80;;;;;;5038911;28;20212;-73
2021/07/03 11:53:24;;;;;;;1.02;0.35;;;32.00;64.00;;;;;;5037799;28;20201;-73
2021/07/03 11:55:52;;;;;;;0.28;0.28;;;31.30;67.80;;;;;;5041134;28;20193;-72
2021/07/03 11:58:25;;;;;;;0.22;0.22;;;30.70;69.80;;;;;;5024556;28;20200;-72
2021/07/03 12:00:53;;;;;;;0.70;0.47;;;29.90;70.80;;;;;;5031447;28;20581;-72
2021/07/03 12:03:26;;;;;;;0.70;0.60;;;28.90;71.30;;;;;;5040767;28;20578;-72
2021/07/03 12:05:57;;;;;;;1.85;0.70;;;28.60;74.00;;;;;;5024142;28;20284;-71
2021/07/03 12:08:29;;;;;;;0.40;0.40;;;29.30;81.70;;;;;;5039321;28;20220;-71
2021/07/03 12:10:59;;;;;;;0.30;0.30;;;30.00;75.80;;;;;;5037154;28;21058;-72
2021/07/03 12:13:32;;;;;;;0.40;0.40;;;30.60;72.60;;;;;;5040167;28;20197;-74
2021/07/03 12:15:58;;;;;;;0.60;0.52;;;30.80;66.70;;;;;;5034022;28;20203;-71
2021/07/03 12:18:36;;;;;;;0.40;0.40;;;30.10;75.70;;;;;;5039591;28;20232;-72
2021/07/03 12:21:11;;;;;;;7.55;0.73;;;30.70;74.50;;;;;;5040821;28;20233;-71
2021/07/03 12:23:50;;;;;;;0.60;0.60;;;31.50;72.40;;;;;;5031819;28;20220;-72
2021/07/03 12:26:20;;;;;;;0.45;0.30;;;32.10;70.30;;;;;;5039913;28;20196;-72
2021/07/03 12:29:01;;;;;;;0.40;0.40;;;32.40;68.90;;;;;;5021271;28;20213;-72
2021/07/03 12:31:30;;;;;;;0.40;0.40;;;32.50;66.30;;;;;;5019879;28;20186;-71
2021/07/03 12:34:11;;;;;;;0.20;0.20;;;32.50;67.80;;;;;;5038461;28;20303;-71
2021/07/03 12:36:47;;;;;;;0.57;0.32;;;31.60;67.60;;;;;;5033184;28;20204;-71
2021/07/03 12:39:19;;;;;;;0.63;0.50;;;31.50;68.60;;;;;;5042850;28;20200;-71
2021/07/03 12:41:47;;;;;;;0.98;0.52;;;30.70;69.20;;;;;;5036268;28;20610;-71
2021/07/03 12:44:13;;;;;;;0.77;0.32;;;29.80;69.50;;;;;;5041397;28;20201;-72
2021/07/03 12:46:41;;;;;;;0.20;0.20;;;29.20;72.30;;;;;;5032805;28;20911;-71
2021/07/03 12:49:08;;;;;;;0.50;0.50;;;28.60;73.00;;;;;;5042203;28;20287;-72
2021/07/03 12:51:41;;;;;;;0.40;0.40;;;28.70;73.60;;;;;;5037806;28;20255;-71
2021/07/03 12:54:10;;;;;;;0.10;0.10;;;29.00;76.50;;;;;;5021517;28;20197;-71
2021/07/03 12:56:36;;;;;;;0.57;0.55;;;29.70;71.60;;;;;;5046606;28;20201;-71
2021/07/03 12:59:04;;;;;;;0.63;0.40;;;30.50;71.70;;;;;;5040975;28;20205;-71
2021/07/03 13:01:40;;;;;;;0.43;0.43;;;30.90;71.00;;;;;;5018591;28;20292;-72
2021/07/03 13:04:07;;;;;;;1.05;0.50;;;31.20;71.00;;;;;;5024469;28;20865;-72
2021/07/03 13:06:34;;;;;;;0.15;0.15;;;30.80;70.00;;;;;;5039457;28;20671;-72
2021/07/03 13:09:00;;;;;;;0.55;0.43;;;29.80;70.00;;;;;;5044378;28;20596;-73
2021/07/03 13:11:28;;;;;;;0.30;0.30;;;29.10;74.10;;;;;;5044126;28;20189;-72